Time;durP1;ratioP1;P1;durP2;ratioP2;P2;SDS_P1;SDS_P2;PMS_P1;PMS_P2;Temp;Humidity;BMP_temperature;BMP_pressure;BME280_temperature;BME280_humidity;BME280_pressure;Samples;Min_cycle;Max_cycle;Signal;HPM_P1;HPM_P2
2022/02/11 00:02:17;;;;;;;8.20;6.08;;;;;;;4.82;87.23;101062.29;1619524;87;20989;-78
2022/02/11 00:07:46;;;;;;;9.95;6.42;;;;;;;4.81;87.25;101052.46;1626262;86;20914;-78
2022/02/11 00:10:31;;;;;;;6.80;6.10;;;;;;;4.82;87.22;101063.57;1628567;87;20914;-78
2022/02/11 00:13:15;;;;;;;9.38;6.58;;;;;;;4.84;87.27;101061.47;1641846;86;20934;-78
2022/02/11 00:16:00;;;;;;;9.25;7.15;;;;;;;4.83;87.28;101064.88;1605986;87;21544;-77
2022/02/11 00:18:44;;;;;;;12.35;7.22;;;;;;;4.86;87.31;101063.64;1632775;86;20944;-77
2022/02/11 00:21:29;;;;;;;11.70;7.33;;;;;;;4.88;87.33;101058.12;1598311;87;20947;-77
2022/02/11 00:24:15;;;;;;;10.85;7.65;;;;;;;4.90;87.32;101062.84;1568817;89;21409;-77
2022/02/11 00:27:39;;;;;;;9.28;7.42;;;;;;;4.92;87.32;101058.60;1617003;86;20961;-77
2022/02/11 00:35:50;;;;;;;19.02;9.93;;;;;;;5.00;87.34;101059.99;1597279;88;20918;-78
2022/02/11 00:38:53;;;;;;;17.67;9.35;;;;;;;4.99;87.28;101065.54;1607290;88;20989;-77
2022/02/11 00:53:28;;;;;;;12.93;8.53;;;;;;;5.03;87.34;101064.30;1609591;88;20918;-77
2022/02/11 01:02:21;;;;;;;7.47;6.78;;;;;;;5.06;87.32;101065.20;1591251;88;20953;-78
2022/02/11 01:05:05;;;;;;;8.98;7.10;;;;;;;5.06;87.37;101061.36;1597985;88;21864;-77
2022/02/11 01:07:49;;;;;;;7.58;6.62;;;;;;;5.08;87.38;101062.66;1582050;89;20989;-77
2022/02/11 01:10:34;;;;;;;8.35;6.40;;;;;;;5.07;87.33;101055.81;1595692;88;20956;-77
2022/02/11 01:13:19;;;;;;;15.72;7.58;;;;;;;5.08;87.35;101058.81;1595598;88;21467;-78
2022/02/11 01:16:10;;;;;;;8.75;6.55;;;;;;;5.07;87.33;101055.81;1579149;88;20973;-77
2022/02/11 01:19:00;;;;;;;8.85;6.80;;;;;;;5.05;87.33;101052.37;1598060;88;20966;-76
2022/02/11 01:21:49;;;;;;;;;;;;;;;5.04;87.35;101055.35;1627911;88;21855;-77
2022/02/11 01:24:50;;;;;;;9.50;6.42;;;;;;;5.03;87.40;101054.91;1597526;88;20144;-77
2022/02/11 01:33:43;;;;;;;10.60;6.83;;;;;;;5.03;87.40;101044.66;1633433;87;20916;-77
2022/02/11 01:45:21;;;;;;;7.90;7.10;;;;;;;5.02;87.38;101038.23;1605344;88;20973;-77
2022/02/11 01:48:09;;;;;;;11.00;7.60;;;;;;;5.02;87.43;101039.52;1592122;88;21501;-77
2022/02/11 01:53:45;;;;;;;7.70;6.10;;;;;;;4.99;87.42;101029.66;1612381;88;20982;-77
2022/02/11 01:56:40;;;;;;;10.98;7.10;;;;;;;4.99;87.42;101031.36;1610545;88;21529;-77
2022/02/11 01:59:49;;;;;;;8.53;6.80;;;;;;;4.98;87.45;101025.80;1605288;88;21440;-78
2022/02/11 02:23:08;;;;;;;10.30;7.15;;;;;;;4.99;87.50;101030.94;1603364;88;20945;-77
2022/02/11 02:58:17;;;;;;;8.68;6.40;;;;;;;4.81;87.42;101003.78;1585097;88;21029;-77
2022/02/11 03:16:52;;;;;;;9.68;7.58;;;;;;;4.62;87.46;101005.67;1603577;88;20910;-77
2022/02/11 03:55:56;;;;;;;9.18;7.28;;;;;;;4.54;87.54;101009.41;1605389;88;20954;-77
2022/02/11 04:53:43;;;;;;;8.95;6.08;;;;;;;4.51;87.55;101000.40;1616778;88;21516;-77
2022/02/11 04:55:46;;;;;;;9.23;6.17;;;;;;;4.50;87.56;101005.49;1599460;88;21101;-78
2022/02/11 05:01:35;;;;;;;7.00;5.35;;;;;;;4.46;87.55;101012.69;1606401;88;20926;-78
2022/02/11 05:04:19;;;;;;;8.15;6.37;;;;;;;4.43;87.56;101016.06;1602451;88;20970;-78
2022/02/11 05:07:04;;;;;;;7.22;5.42;;;;;;;4.42;87.58;101010.91;1585215;88;20922;-78
2022/02/11 05:09:48;;;;;;;7.05;5.42;;;;;;;4.43;87.62;101013.50;1594244;88;20949;-77
2022/02/11 05:12:32;;;;;;;8.63;5.35;;;;;;;4.42;87.57;101016.90;1616113;88;20926;-77
2022/02/11 05:15:17;;;;;;;6.55;5.60;;;;;;;4.42;87.62;101017.31;1608707;88;20965;-77
2022/02/11 05:18:02;;;;;;;10.48;5.80;;;;;;;4.45;87.64;101010.97;1591743;88;20922;-77
2022/02/11 05:20:48;;;;;;;7.97;6.03;;;;;;;4.47;87.65;101013.13;1626128;87;21828;-77
2022/02/11 05:23:32;;;;;;;8.33;5.95;;;;;;;4.45;87.56;101012.25;1592026;88;20918;-77
2022/02/11 05:26:17;;;;;;;7.47;5.42;;;;;;;4.35;87.49;101004.84;1627427;86;21382;-76
2022/02/11 05:29:01;;;;;;;8.85;5.58;;;;;;;4.41;87.48;101021.58;1636270;86;20927;-76
2022/02/11 05:31:45;;;;;;;11.43;4.97;;;;;;;4.40;87.54;101015.16;1583150;89;21517;-76
2022/02/11 05:34:30;;;;;;;8.40;4.72;;;;;;;4.37;87.48;101013.83;1612577;88;20930;-76
2022/02/11 05:37:15;;;;;;;8.00;4.33;;;;;;;4.37;87.57;101015.97;1606699;88;21759;-76
2022/02/11 05:40:00;;;;;;;16.27;5.00;;;;;;;4.38;87.60;101018.11;1623841;86;21446;-76
2022/02/11 05:42:45;;;;;;;7.70;4.50;;;;;;;4.39;87.63;101018.55;1614570;86;20948;-76
2022/02/11 05:45:29;;;;;;;8.15;5.05;;;;;;;4.39;87.60;101018.13;1594648;89;20949;-76
2022/02/11 05:48:14;;;;;;;7.60;4.28;;;;;;;4.42;87.66;101022.02;1595789;87;20977;-76
2022/02/11 05:50:59;;;;;;;8.58;5.03;;;;;;;4.43;87.63;101022.88;1617514;87;20946;-77
2022/02/11 05:53:43;;;;;;;7.62;4.95;;;;;;;4.43;87.60;101021.19;1593573;88;20933;-77
2022/02/11 05:56:28;;;;;;;6.03;4.40;;;;;;;4.42;87.56;101019.45;1595220;88;20975;-77
2022/02/11 05:59:12;;;;;;;7.20;4.40;;;;;;;4.40;87.52;101014.73;1580516;89;20942;-77
2022/02/11 06:01:56;;;;;;;8.40;3.90;;;;;;;4.39;87.54;101021.97;1600985;88;20994;-77
2022/02/11 06:04:41;;;;;;;7.15;4.37;;;;;;;4.41;87.62;101021.99;1610724;86;20958;-77
2022/02/11 06:07:25;;;;;;;6.22;4.08;;;;;;;4.43;87.65;101028.00;1628189;87;20964;-77
2022/02/11 06:10:10;;;;;;;7.60;4.17;;;;;;;4.45;87.61;101031.03;1605396;87;20928;-77
2022/02/11 06:12:54;;;;;;;6.17;4.00;;;;;;;4.43;87.55;101025.02;1628698;87;20986;-77
2022/02/11 06:15:38;;;;;;;7.00;3.65;;;;;;;4.42;87.61;101032.27;1599737;89;20937;-77
2022/02/11 06:18:23;;;;;;;6.58;3.67;;;;;;;4.42;87.60;101030.12;1586420;87;20962;-77
2022/02/11 06:21:07;;;;;;;7.00;3.92;;;;;;;4.43;87.61;101032.70;1619458;87;21494;-77
2022/02/11 06:23:55;;;;;;;10.60;4.50;;;;;;;4.42;87.58;101037.80;1613289;87;21403;-77
2022/02/11 06:26:40;;;;;;;7.65;4.12;;;;;;;4.37;87.47;101038.14;1600445;88;20921;-77
2022/02/11 06:29:24;;;;;;;4.65;3.98;;;;;;;4.32;87.46;101033.81;1612277;87;20980;-77
2022/02/11 06:32:09;;;;;;;9.03;4.65;;;;;;;4.32;87.54;101039.34;1615595;87;20954;-77
2022/02/11 06:34:56;;;;;;;6.05;4.15;;;;;;;4.28;87.52;101038.44;1606801;86;20944;-77
2022/02/11 06:37:45;;;;;;;;;;;;;;;4.28;87.56;101042.28;1600734;88;21481;-76
2022/02/11 06:40:30;;;;;;;8.93;4.05;;;;;;;4.30;87.66;101040.61;1592152;86;20147;-76
2022/02/11 06:43:15;;;;;;;9.23;3.92;;;;;;;4.29;87.58;101038.02;1608321;87;20954;-77
2022/02/11 06:46:01;;;;;;;5.95;3.80;;;;;;;4.30;87.65;101039.75;1608733;87;20970;-77
2022/02/11 06:48:45;;;;;;;8.23;3.60;;;;;;;4.31;87.65;101039.77;1594046;87;20985;-77
2022/02/11 06:51:29;;;;;;;8.68;3.87;;;;;;;4.33;87.63;101039.38;1575526;88;21552;-77
2022/02/11 06:54:14;;;;;;;8.90;4.25;;;;;;;4.34;87.64;101046.64;1603081;87;20938;-77
2022/02/11 06:56:58;;;;;;;6.95;3.98;;;;;;;4.36;87.68;101047.94;1589436;88;20973;-77
2022/02/11 06:59:42;;;;;;;6.45;4.25;;;;;;;4.35;87.58;101050.06;1610646;86;20966;-77
2022/02/11 07:02:29;;;;;;;14.33;4.25;;;;;;;4.34;87.61;101059.44;1609544;87;20952;-78
2022/02/11 07:05:13;;;;;;;10.60;3.70;;;;;;;4.35;87.59;101064.14;1608086;88;20983;-78
2022/02/11 07:07:57;;;;;;;5.22;3.30;;;;;;;4.36;87.66;101064.58;1606984;87;20922;-77
2022/02/11 07:10:42;;;;;;;4.42;3.65;;;;;;;4.38;87.66;101062.49;1568064;89;20966;-77
2022/02/11 07:13:26;;;;;;;8.60;3.70;;;;;;;4.39;87.64;101065.91;1577769;89;21391;-77
2022/02/11 07:16:11;;;;;;;8.73;3.72;;;;;;;4.38;87.54;101073.15;1590552;89;20961;-77
2022/02/11 07:18:55;;;;;;;10.15;3.60;;;;;;;4.38;87.63;101064.19;1619192;87;21486;-77
2022/02/11 07:21:41;;;;;;;10.35;4.17;;;;;;;4.40;87.57;101058.67;1577054;89;20957;-77
2022/02/11 07:24:25;;;;;;;8.63;4.28;;;;;;;4.38;87.54;101057.37;1595045;88;21377;-77
2022/02/11 07:27:10;;;;;;;6.50;4.03;;;;;;;4.35;87.53;101063.72;1571400;89;21588;-77
2022/02/11 07:29:54;;;;;;;6.83;3.33;;;;;;;4.34;87.47;101067.12;1576760;89;20978;-77
2022/02/11 07:32:39;;;;;;;8.75;3.42;;;;;;;4.35;87.54;101061.16;1580626;88;21017;-77
2022/02/11 07:35:24;;;;;;;5.67;3.35;;;;;;;4.34;87.60;101068.39;1605996;87;20971;-77
2022/02/11 07:38:09;;;;;;;5.35;2.92;;;;;;;4.37;87.64;101071.42;1568520;89;20949;-77
2022/02/11 07:40:53;;;;;;;7.47;3.50;;;;;;;4.40;87.63;101072.76;1593949;88;20995;-77
2022/02/11 07:43:38;;;;;;;7.97;3.30;;;;;;;4.43;87.65;101074.09;1585903;87;20938;-77
2022/02/11 07:46:22;;;;;;;4.33;3.47;;;;;;;4.44;87.60;101078.38;1599341;88;21462;-77
2022/02/11 07:49:07;;;;;;;8.83;3.45;;;;;;;4.44;87.63;101083.08;1575222;88;21128;-77
2022/02/11 07:51:51;;;;;;;6.20;3.17;;;;;;;4.48;87.64;101083.57;1583458;88;21018;-76
2022/02/11 07:54:36;;;;;;;5.05;3.55;;;;;;;4.48;87.63;101087.83;1592956;87;21029;-77
2022/02/11 07:57:20;;;;;;;8.63;3.42;;;;;;;4.50;87.60;101086.16;1586487;87;20958;-77
2022/02/11 08:00:07;;;;;;;9.08;2.90;;;;;;;4.51;87.60;101091.30;1596863;88;20955;-77
2022/02/11 08:02:51;;;;;;;;;;;;;;;4.51;87.58;101090.02;1585036;88;20978;-77
2022/02/11 08:05:37;;;;;;;8.40;2.70;;;;;;;4.54;87.63;101096.47;1582761;88;20187;-79
2022/02/11 08:08:26;;;;;;;8.80;2.75;;;;;;;4.55;87.65;101102.45;1576104;88;21007;-80
2022/02/11 08:11:10;;;;;;;5.17;2.67;;;;;;;4.52;87.42;101103.69;1583166;88;20986;-79
2022/02/11 08:13:55;;;;;;;4.87;2.92;;;;;;;4.51;87.49;101103.24;1586964;88;20971;-81
2022/02/11 08:16:39;;;;;;;9.13;2.98;;;;;;;4.53;87.57;101105.41;1592509;88;20935;-80
2022/02/11 08:19:24;;;;;;;6.37;2.90;;;;;;;4.55;87.61;101105.88;1591272;88;20954;-75
2022/02/11 08:22:09;;;;;;;5.33;2.92;;;;;;;4.55;87.58;101113.98;1617026;87;20975;-74
2022/02/11 08:24:53;;;;;;;12.53;2.67;;;;;;;4.58;87.63;101112.75;1604050;87;20970;-74
2022/02/11 08:27:40;;;;;;;6.85;2.45;;;;;;;4.60;87.60;101113.64;1621259;87;20978;-74
2022/02/11 08:30:24;;;;;;;;;;;;;;;4.60;87.59;101106.81;1596427;88;20926;-74
2022/02/11 08:33:08;;;;;;;4.40;2.37;;;;;;;4.60;87.51;101104.26;1587309;88;20139;-76
2022/02/11 08:35:57;;;;;;;3.60;2.00;;;;;;;4.61;87.53;101111.10;1587506;88;20934;-77
2022/02/11 08:38:42;;;;;;;12.88;2.77;;;;;;;4.60;87.49;101114.50;1599546;87;21479;-78
2022/02/11 08:41:26;;;;;;;10.53;2.30;;;;;;;4.61;87.55;101108.55;1577349;88;20921;-77
2022/02/11 08:44:11;;;;;;;6.83;2.62;;;;;;;4.63;87.57;101106.01;1595939;87;20972;-76
2022/02/11 08:46:55;;;;;;;6.40;2.00;;;;;;;4.64;87.56;101111.57;1593549;87;20972;-76
2022/02/11 08:49:39;;;;;;;15.55;2.25;;;;;;;4.65;87.52;101108.17;1607222;87;20987;-77
2022/02/11 08:52:25;;;;;;;5.25;2.05;;;;;;;4.65;87.52;101112.88;1607285;87;21376;-76
2022/02/11 08:55:10;;;;;;;5.15;2.20;;;;;;;4.68;87.55;101104.80;1601406;88;20919;-76
2022/02/11 08:57:59;;;;;;;7.35;2.27;;;;;;;4.71;87.53;101115.06;1604923;87;21459;-76
2022/02/11 09:00:41;;;;;;;;;;;;;;;4.72;87.55;101114.22;1588280;88;21402;-77
2022/02/11 09:03:26;;;;;;;4.05;1.75;;;;;;;4.74;87.53;101119.81;1608987;88;20144;-77
2022/02/11 09:06:11;;;;;;;8.83;1.98;;;;;;;4.74;87.50;101121.09;1590811;88;20965;-78
2022/02/11 09:08:55;;;;;;;4.15;2.20;;;;;;;4.75;87.52;101127.94;1585720;87;20981;-80
2022/02/11 09:11:40;;;;;;;8.05;2.35;;;;;;;4.76;87.50;101130.95;1583826;88;21649;-76
2022/02/11 09:14:24;;;;;;;11.08;2.37;;;;;;;4.78;87.54;101131.83;1598109;88;20987;-76
2022/02/11 09:17:09;;;;;;;7.90;2.35;;;;;;;4.81;87.53;101129.32;1587376;87;20983;-77
2022/02/11 09:19:53;;;;;;;8.10;2.30;;;;;;;4.84;87.55;101134.91;1621503;87;20952;-78
2022/02/11 09:22:38;;;;;;;7.33;2.20;;;;;;;4.84;87.48;101136.20;1627673;86;20968;-77
2022/02/11 09:25:23;;;;;;;9.55;3.60;;;;;;;4.85;87.52;101136.64;1625457;87;20940;-77
2022/02/11 09:28:07;;;;;;;7.00;2.77;;;;;;;4.88;87.57;101137.97;1577933;88;20964;-77
2022/02/11 09:30:52;;;;;;;9.35;3.20;;;;;;;4.87;87.49;101144.79;1594820;88;20914;-77
2022/02/11 09:33:37;;;;;;;6.83;2.75;;;;;;;4.87;87.42;101143.93;1593702;88;20922;-77
2022/02/11 09:36:22;;;;;;;10.75;4.00;;;;;;;4.83;87.38;101142.16;1587570;88;20934;-76
2022/02/11 09:39:10;;;;;;;12.10;3.87;;;;;;;4.82;87.40;101143.86;1594288;88;21008;-77
2022/02/11 09:41:55;;;;;;;5.67;2.98;;;;;;;4.86;87.50;101144.77;1591429;88;20941;-77
2022/02/11 09:44:40;;;;;;;7.97;3.37;;;;;;;4.87;87.50;101143.93;1614445;87;21426;-79
2022/02/11 09:47:25;;;;;;;4.62;2.40;;;;;;;4.92;87.55;101146.14;1616024;87;21811;-78
2022/02/11 09:50:11;;;;;;;7.53;2.77;;;;;;;4.96;87.55;101147.92;1617087;87;21845;-78
2022/02/11 09:52:55;;;;;;;5.97;2.83;;;;;;;4.98;87.46;101152.65;1612433;87;20970;-79
2022/02/11 09:55:42;;;;;;;7.10;2.65;;;;;;;4.99;87.44;101155.66;1617935;87;21002;-79
2022/02/11 09:58:29;;;;;;;8.85;2.27;;;;;;;4.98;87.39;101157.35;1615742;87;20990;-80
2022/02/11 10:01:13;;;;;;;7.30;2.62;;;;;;;4.98;87.44;101156.07;1603750;87;20978;-78
2022/02/11 10:04:22;;;;;;;8.70;2.37;;;;;;;4.98;87.36;101164.17;1604950;88;20946;-77
2022/02/11 10:07:07;;;;;;;9.68;2.33;;;;;;;4.99;87.40;101162.06;1596048;87;20946;-77
2022/02/11 10:09:51;;;;;;;9.75;2.35;;;;;;;5.06;87.53;101154.91;1589490;89;20982;-77
2022/02/11 10:12:35;;;;;;;10.72;3.87;;;;;;;5.11;87.53;101159.69;1616323;87;20922;-78
2022/02/11 10:15:21;;;;;;;12.23;2.52;;;;;;;5.17;87.49;101158.91;1614013;87;20980;-79
2022/02/11 10:18:07;;;;;;;8.65;2.85;;;;;;;5.23;87.50;101160.25;1600602;88;20938;-78
2022/02/11 10:20:56;;;;;;;11.03;2.90;;;;;;;5.28;87.46;101162.05;1616457;87;20930;-77
2022/02/11 10:23:42;;;;;;;6.90;2.22;;;;;;;5.33;87.43;101159.55;1620106;87;21531;-77
2022/02/11 10:26:27;;;;;;;13.43;2.45;;;;;;;5.40;87.49;101165.20;1607196;87;21008;-78
2022/02/11 10:29:15;;;;;;;6.08;2.02;;;;;;;5.41;87.35;101168.63;1619563;87;21517;-78
2022/02/11 10:31:59;;;;;;;6.75;2.40;;;;;;;5.39;87.29;101167.33;1589543;87;20972;-79
2022/02/11 10:34:52;;;;;;;10.35;2.40;;;;;;;5.38;87.31;101169.45;1620249;87;20930;-79
2022/02/11 10:37:41;;;;;;;12.00;3.50;;;;;;;5.37;87.32;101176.70;1594697;88;20974;-78
2022/02/11 10:40:30;;;;;;;14.00;3.47;;;;;;;5.37;87.30;101175.84;1607162;86;20928;-78
2022/02/11 10:43:21;;;;;;;7.35;2.65;;;;;;;5.34;87.28;101185.63;1609277;87;20933;-77
2022/02/11 10:46:11;;;;;;;8.55;2.65;;;;;;;5.33;87.28;101182.63;1604464;87;21557;-77
2022/02/11 10:48:59;;;;;;;14.40;3.72;;;;;;;5.33;87.25;101194.16;1618450;86;20925;-77
2022/02/11 10:51:49;;;;;;;5.20;3.00;;;;;;;5.30;87.26;101195.41;1607945;87;20933;-77
2022/02/11 10:54:34;;;;;;;10.78;3.33;;;;;;;5.30;87.29;101197.55;1620013;87;20969;-78
2022/02/11 10:57:22;;;;;;;12.90;4.03;;;;;;;5.31;87.31;101197.98;1607855;87;20957;-77
2022/02/11 11:00:08;;;;;;;11.75;4.00;;;;;;;5.31;87.27;101197.13;1605231;87;21351;-79
2022/02/11 11:02:53;;;;;;;11.12;3.70;;;;;;;5.28;87.21;101203.07;1624227;86;21402;-78
2022/02/11 11:05:41;;;;;;;13.32;3.75;;;;;;;5.22;87.16;101211.09;1597273;88;20993;-78
2022/02/11 11:08:27;;;;;;;13.43;4.65;;;;;;;5.17;87.14;101209.77;1601910;87;20937;-78
2022/02/11 11:11:14;;;;;;;18.87;4.12;;;;;;;5.18;87.27;101209.34;1618313;85;21589;-77
2022/02/11 11:14:01;;;;;;;15.15;5.25;;;;;;;5.17;87.23;101208.91;1573191;89;21017;-77
2022/02/11 11:16:49;;;;;;;11.45;4.70;;;;;;;5.15;87.14;101213.14;1609124;87;20970;-77
2022/02/11 11:19:36;;;;;;;11.00;4.80;;;;;;;5.10;87.17;101205.80;1615658;87;20986;-77
2022/02/11 11:22:28;;;;;;;15.32;4.80;;;;;;;5.09;87.19;101213.05;1575645;89;21419;-77
2022/02/11 11:25:14;;;;;;;11.40;4.33;;;;;;;5.08;87.20;101216.45;1582102;88;21373;-77
2022/02/11 11:28:01;;;;;;;13.15;5.05;;;;;;;5.08;87.20;101219.87;1584586;88;21499;-77
2022/02/11 11:30:50;;;;;;;11.70;4.17;;;;;;;5.05;87.17;101218.55;1571587;89;21443;-76
2022/02/11 11:33:35;;;;;;;13.60;4.67;;;;;;;5.06;87.26;101225.39;1569784;89;21003;-81
2022/02/11 11:36:21;;;;;;;12.43;4.53;;;;;;;5.08;87.23;101220.30;1582601;88;20962;-81
2022/02/11 11:39:06;;;;;;;10.50;3.83;;;;;;;5.10;87.29;101224.61;1582435;88;21454;-79
2022/02/11 11:42:14;;;;;;;13.28;3.70;;;;;;;5.11;87.24;101222.48;1584760;88;20973;-81
2022/02/11 11:45:00;;;;;;;8.65;3.22;;;;;;;5.14;87.25;101230.64;1568855;89;21416;-80
2022/02/11 11:47:44;;;;;;;14.75;4.35;;;;;;;5.19;87.31;101231.16;1576449;88;20975;-82
2022/02/11 11:50:31;;;;;;;9.50;3.40;;;;;;;5.20;87.17;101234.14;1585229;89;21517;-78
2022/02/11 11:53:26;;;;;;;8.80;3.00;;;;;;;5.16;87.06;101226.41;1589096;88;20943;-79
2022/02/11 11:56:33;;;;;;;11.20;3.35;;;;;;;5.13;87.05;101221.23;1629401;86;20973;-80
2022/02/11 11:59:31;;;;;;;17.00;2.90;;;;;;;5.10;87.02;101228.87;1629560;86;21009;-84
2022/02/11 12:02:23;;;;;;;9.73;2.55;;;;;;;5.10;87.07;101228.87;1630492;87;20969;-74
2022/02/11 12:05:07;;;;;;;8.88;2.72;;;;;;;5.10;87.12;101233.58;1587758;88;21541;-74
2022/02/11 12:07:54;;;;;;;8.65;2.95;;;;;;;5.11;87.12;101234.02;1594832;88;21043;-74
2022/02/11 12:10:38;;;;;;;14.80;3.12;;;;;;;5.12;87.14;101238.31;1587270;88;20997;-74
2022/02/11 12:13:24;;;;;;;9.45;3.27;;;;;;;5.12;87.05;101238.31;1602970;88;20935;-74
2022/02/11 12:16:09;;;;;;;13.78;3.30;;;;;;;5.10;87.00;101239.98;1594406;88;20963;-74
2022/02/11 12:18:53;;;;;;;9.35;2.72;;;;;;;5.06;86.99;101244.62;1620505;86;21024;-81
2022/02/11 12:21:38;;;;;;;8.70;2.67;;;;;;;5.04;86.98;101240.30;1627742;86;21173;-77
2022/02/11 12:27:31;;;;;;;14.73;3.02;;;;;;;5.05;87.04;101246.73;1607586;87;20973;-78
2022/02/11 12:30:21;;;;;;;9.58;2.50;;;;;;;5.04;86.97;101253.98;1596305;88;20941;-79
2022/02/11 12:33:05;;;;;;;12.30;2.95;;;;;;;5.07;87.08;101259.16;1602676;88;20962;-78
2022/02/11 12:35:51;;;;;;;7.95;2.62;;;;;;;5.11;87.08;101248.12;1582904;88;21021;-79
2022/02/11 12:38:37;;;;;;;10.82;2.85;;;;;;;5.16;87.05;101240.50;1598408;87;20941;-77
2022/02/11 12:41:21;;;;;;;8.40;2.58;;;;;;;5.20;87.01;101246.95;1607610;87;21517;-80
2022/02/11 12:44:06;;;;;;;11.85;2.58;;;;;;;5.24;87.01;101246.59;1565211;89;20969;-83
2022/02/11 12:46:52;;;;;;;7.55;2.50;;;;;;;5.29;87.03;101252.65;1588084;88;21470;-79
2022/02/11 12:49:46;;;;;;;7.05;2.65;;;;;;;5.30;86.94;101256.52;1596310;87;20946;-81
2022/02/11 12:52:36;;;;;;;9.65;3.35;;;;;;;5.31;86.92;101258.25;1539915;88;32782;-77
2022/02/11 12:55:22;;;;;;;11.55;3.15;;;;;;;5.35;87.04;101259.16;1606206;87;21524;-75
2022/02/11 12:58:10;;;;;;;10.53;3.40;;;;;;;5.35;86.79;101257.88;1567329;88;20952;-77
2022/02/11 13:00:55;;;;;;;8.28;2.98;;;;;;;5.37;86.89;101259.18;1595884;88;20947;-77
2022/02/11 13:03:45;;;;;;;9.68;2.87;;;;;;;5.41;86.87;101265.66;1599724;87;20978;-77
2022/02/11 13:06:34;;;;;;;12.13;2.67;;;;;;;5.43;86.80;101266.97;1587312;89;20929;-76
2022/02/11 13:09:21;;;;;;;8.28;2.85;;;;;;;5.43;86.76;101272.96;1612975;87;21524;-77
2022/02/11 13:12:06;;;;;;;6.97;2.72;;;;;;;5.44;86.76;101271.26;1604310;88;21032;-78
2022/02/11 13:14:51;;;;;;;10.65;2.98;;;;;;;5.42;86.71;101270.38;1598912;88;20931;-78
2022/02/11 13:17:36;;;;;;;15.50;2.90;;;;;;;5.42;86.73;101269.95;1591843;88;20973;-77
2022/02/11 13:20:32;;;;;;;15.45;3.08;;;;;;;5.43;86.73;101278.09;1590059;88;20915;-77
2022/02/11 13:23:13;;;;;;;7.70;2.77;;;;;;;5.44;86.73;101284.08;1625364;87;20937;-77
2022/02/11 13:25:59;;;;;;;6.85;2.75;;;;;;;5.47;86.77;101287.98;1618578;86;21588;-77
2022/02/11 13:28:49;;;;;;;9.43;2.27;;;;;;;5.49;86.71;101285.02;1602511;88;21006;-78
2022/02/11 13:31:48;;;;;;;9.30;2.33;;;;;;;5.49;86.65;101293.58;1600340;87;20954;-77
2022/02/11 13:34:33;;;;;;;5.20;2.35;;;;;;;5.48;86.64;101289.28;1620206;86;21005;-78
2022/02/11 13:37:17;;;;;;;9.10;2.22;;;;;;;5.45;86.59;101294.78;1609337;88;20926;-80
2022/02/11 13:40:24;;;;;;;10.95;2.90;;;;;;;5.41;86.55;101301.98;1623058;86;20954;-80
2022/02/11 13:43:10;;;;;;;11.55;2.77;;;;;;;5.40;86.59;101306.25;1609507;88;20923;-80
2022/02/11 13:46:03;;;;;;;10.53;2.70;;;;;;;5.43;86.57;101305.02;1605413;88;20978;-81
2022/02/11 13:48:53;;;;;;;10.65;2.65;;;;;;;5.44;86.53;101300.75;1587524;88;21457;-84
2022/02/11 13:51:40;;;;;;;7.10;2.40;;;;;;;5.43;86.42;101310.57;1607179;88;21085;-82
2022/02/11 13:54:24;;;;;;;6.85;2.98;;;;;;;5.42;86.46;101311.41;1594599;88;21056;-84
2022/02/11 13:57:22;;;;;;;6.15;2.40;;;;;;;5.42;86.41;101313.55;1613252;87;21116;-85
2022/02/11 14:00:32;;;;;;;12.58;2.75;;;;;;;5.41;86.34;101323.78;1604986;86;21102;-83
2022/02/11 14:03:28;;;;;;;6.65;2.35;;;;;;;5.36;86.30;101321.14;1600978;88;21062;-81
2022/02/11 14:06:16;;;;;;;9.65;2.33;;;;;;;5.21;86.03;101319.60;1620794;86;21029;-81
2022/02/11 14:09:07;;;;;;;7.60;2.60;;;;;;;5.21;86.03;101319.60;1604536;87;21098;-78
2022/02/11 14:11:52;;;;;;;8.45;2.52;;;;;;;5.30;86.28;101333.86;1603332;87;20992;-78
2022/02/11 14:14:36;;;;;;;9.63;2.70;;;;;;;5.28;86.16;101340.66;1599181;88;21125;-78
2022/02/11 14:17:21;;;;;;;8.65;2.02;;;;;;;5.28;86.17;101346.66;1604760;87;22236;-78
2022/02/11 14:20:07;;;;;;;8.08;2.40;;;;;;;5.29;86.18;101341.97;1596666;87;21144;-78
2022/02/11 14:22:52;;;;;;;10.72;2.62;;;;;;;5.29;86.18;101338.13;1588614;88;20916;-77
2022/02/11 14:25:36;;;;;;;5.37;2.22;;;;;;;5.26;85.99;101338.08;1564234;89;20962;-76
2022/02/11 14:28:24;;;;;;;11.25;2.22;;;;;;;5.20;85.99;101338.42;1582048;89;20944;-77
2022/02/11 14:31:08;;;;;;;7.92;2.20;;;;;;;5.16;85.97;101347.75;1617074;88;20926;-77
2022/02/11 14:33:52;;;;;;;10.70;3.45;;;;;;;5.12;85.94;101352.37;1596308;88;21493;-77
2022/02/11 14:36:38;;;;;;;7.92;2.45;;;;;;;5.09;85.87;101356.59;1595126;88;20940;-78
2022/02/11 14:39:23;;;;;;;8.53;2.15;;;;;;;5.02;85.86;101360.73;1609227;87;20968;-77
2022/02/11 14:42:08;;;;;;;7.37;1.82;;;;;;;4.99;85.84;101356.84;1563484;88;21060;-77
2022/02/11 14:44:54;;;;;;;6.87;1.92;;;;;;;4.95;85.84;101358.48;1603151;88;21137;-78
2022/02/11 14:47:38;;;;;;;9.70;2.47;;;;;;;4.95;85.87;101363.60;1610496;88;21145;-78
2022/02/11 14:50:24;;;;;;;9.60;2.00;;;;;;;4.95;85.91;101364.88;1591527;88;21097;-77
2022/02/11 14:53:10;;;;;;;10.43;2.17;;;;;;;4.94;85.85;101367.41;1601511;88;22298;-77
2022/02/11 14:55:55;;;;;;;7.10;2.60;;;;;;;4.93;85.89;101366.55;1574407;89;28547;-77
2022/02/11 14:58:39;;;;;;;6.62;1.70;;;;;;;4.97;85.89;101377.73;1593724;88;21128;-77
2022/02/11 15:01:25;;;;;;;10.93;2.42;;;;;;;4.97;85.89;101379.87;1610649;87;21067;-77
2022/02/11 15:04:11;;;;;;;7.30;2.00;;;;;;;4.99;85.90;101388.88;1585035;88;21634;-77
2022/02/11 15:06:57;;;;;;;10.03;2.27;;;;;;;5.04;85.93;101391.52;1601649;88;21355;-77
2022/02/11 15:09:42;;;;;;;;;;;;;;;5.09;85.97;101401.45;1586067;88;22281;-75
2022/02/11 15:12:26;;;;;;;21.27;5.40;;;;;;;5.12;85.87;101393.81;1588627;88;20527;-75
2022/02/11 15:15:11;;;;;;;16.05;5.53;;;;;;;5.13;85.91;101400.25;1605898;87;21117;-75
2022/02/11 15:17:55;;;;;;;22.13;7.12;;;;;;;5.15;85.85;101398.58;1610338;87;21110;-75
2022/02/11 15:20:43;;;;;;;19.25;5.83;;;;;;;5.15;85.78;101402.84;1608204;87;22500;-75
2022/02/11 15:23:28;;;;;;;15.78;5.10;;;;;;;5.13;85.69;101400.25;1593017;88;21092;-74
2022/02/11 15:26:16;;;;;;;15.72;5.20;;;;;;;5.13;85.65;101405.80;1583806;88;21672;-74
2022/02/11 15:29:00;;;;;;;17.20;4.25;;;;;;;5.11;85.65;101410.89;1609373;88;21056;-74
2022/02/11 15:31:45;;;;;;;9.50;4.30;;;;;;;5.07;85.59;101421.06;1612371;87;21528;-74
2022/02/11 15:34:31;;;;;;;14.89;3.51;;;;;;;5.05;85.54;101421.45;1513010;88;10000089;-74
2022/02/11 15:37:17;;;;;;;9.78;4.37;;;;;;;5.04;85.56;101423.14;1611523;88;21548;-74
2022/02/11 15:40:02;;;;;;;11.83;3.50;;;;;;;5.06;85.55;101435.98;1615259;88;20969;-75
2022/02/11 15:42:47;;;;;;;9.53;3.58;;;;;;;5.05;85.55;101444.09;1637329;87;20966;-75
2022/02/11 15:45:31;;;;;;;9.13;3.65;;;;;;;5.05;85.54;101444.09;1622099;86;21576;-75
2022/02/11 15:48:16;;;;;;;12.15;4.03;;;;;;;5.06;85.53;101453.94;1586108;88;20945;-75
2022/02/11 15:51:04;;;;;;;12.37;3.75;;;;;;;5.04;85.53;101459.03;1589378;86;20937;-75
2022/02/11 15:53:49;;;;;;;8.45;4.37;;;;;;;5.03;85.48;101461.14;1600159;88;20982;-74
2022/02/11 15:56:33;;;;;;;4.30;2.00;;;;;;;4.97;85.40;101470.86;1585500;88;21005;-74
2022/02/11 15:59:18;;;;;;;3.00;1.85;;;;;;;4.74;84.99;101473.77;1582643;88;21080;-75
2022/02/11 16:02:05;;;;;;;4.20;1.47;;;;;;;4.52;85.05;101474.59;1612199;86;21182;-75
2022/02/11 16:04:50;;;;;;;4.42;1.80;;;;;;;4.40;85.17;101493.53;1583522;88;21112;-75
2022/02/11 16:07:36;;;;;;;6.03;3.22;;;;;;;4.29;85.22;101496.25;1571649;88;21120;-75
2022/02/11 16:10:23;;;;;;;4.45;1.67;;;;;;;4.24;85.32;101499.11;1580719;88;21379;-75
2022/02/11 16:13:07;;;;;;;5.22;2.15;;;;;;;4.22;85.38;101507.17;1617272;87;21879;-75
2022/02/11 16:15:56;;;;;;;3.20;1.95;;;;;;;4.21;85.44;101501.19;1615648;87;21065;-74
2022/02/11 16:18:41;;;;;;;3.58;1.72;;;;;;;4.17;85.38;101499.38;1611572;87;21086;-74
2022/02/11 16:21:26;;;;;;;6.78;1.90;;;;;;;4.17;85.43;101500.66;1606929;88;21050;-74
2022/02/11 16:24:11;;;;;;;4.90;1.82;;;;;;;4.18;85.46;101515.60;1613290;87;21104;-74
2022/02/11 16:26:56;;;;;;;5.90;2.00;;;;;;;4.18;85.41;101515.60;1608608;87;21152;-74
2022/02/11 16:29:44;;;;;;;8.70;2.17;;;;;;;4.16;85.39;101519.84;1596016;89;21076;-74
2022/02/11 16:32:28;;;;;;;5.78;1.95;;;;;;;4.16;85.38;101527.53;1597275;88;21112;-74